KIPT/IPT METAR and TAF weather

Enter ICAO airport designator
Station Type Date Time Source
KIPT METAR 2019/12/14 16:54 UTC NOAA

KIPT 141654Z 26007KT 1SM -RA BR OVC002 04/03 A2928 RMK AO2 RAB39 SLP919 P0000 T00390033


Station Type Date Time Source
KIPT Decoded METAR 2019/12/14 16:54 UTC NOAA

WILLIAMSPORT-LYCOMING COUNTY, PA, United States (KIPT) 41-15N 076-55W 164M
Dec 14, 2019 - 11:54 AM EST / 2019.12.14 1654 UTC
Wind: from the W (260 degrees) at 8 MPH (7 KT):0
Visibility: 1 mile(s):0
Sky conditions: overcast
Weather: light rain; mist
Precipitation last hour: A trace
Temperature: 39.0 F (3.9 C)
Dew Point: 37.9 F (3.3 C)
Relative Humidity: 95%
Pressure (altimeter): 29.28 in. Hg (991 hPa)
ob: KIPT 141654Z 26007KT 1SM -RA BR OVC002 04/03 A2928 RMK AO2 RAB39 SLP919 P0000 T00390033
cycle: 17

Station Type Date Time Source
KIPT TAF 2019/12/14 16:06 UTC NOAA

TAF
AMD KIPT 141604Z 1416/1512 00000KT 1 1/2SM BR OVC004
FM142200 28014G24KT P6SM BKN018
FM150200 28017G27KT P6SM BKN022
FM150600 28014G24KT P6SM BKN035

Example: see airport list